If you wish to contribute or participate in the discussions about articles you are invited to join SKYbrary as a registered user

 Actions

Avalon Airport

From SKYbrary Wiki

YMAV /
Revision as of 13:31, 6 December 2018 by Timo.Kouwenhoven (talk | contribs)
(diff) ← Older revision | Latest revision (diff) | Newer revision → (diff)
Airport
ICAO: YMAV – IATA: AVV
Summary
Name Avalon Airport
Region Asia and Pacific
Territory Australia AU.gif
Location , Victoria
Serving Avalon
Elevation 10.668 m
35 ft
35 ft10.668 m
Type medium airport
Coordinates 38° 2' 21.98" S, 144° 28' 9.98" E
Runways
Designator Length Width Surface ROPS
18/36 3048 m10,000 ft
45 m147.638 ft
ASP yes/yes


METAR
Observation YMAV 211900Z AUTO 13008KT 9999 // NCD 13/10 Q1022
Station Avalon, Avalon Airport
Date/Time 21 February 2020 19:00:00
Wind direction 130°
Wind speed 08 kts
Lowest cloud amount no clouds detected
Temperature 13°C
Dew point 10°C
Humidity 82%
QNH 1022 hPa
Weather condition n/a